createdAt,value
2019-03-10T00:00:32.724Z,20.47
2019-03-10T00:02:58.877Z,21.07
2019-03-10T00:05:25.027Z,20.43
2019-03-10T00:07:51.231Z,20.59
2019-03-10T00:10:17.426Z,20.08
2019-03-10T00:12:43.663Z,20.31
2019-03-10T00:15:11.256Z,20.74
2019-03-10T00:17:37.411Z,21.09
2019-03-10T00:20:08.986Z,19.75
2019-03-10T00:22:35.173Z,20.39
2019-03-10T00:25:01.633Z,21.18
2019-03-10T00:27:28.084Z,20.60
2019-03-10T00:29:54.277Z,19.80
2019-03-10T00:32:20.422Z,20.34
2019-03-10T00:34:46.592Z,20.28
2019-03-10T00:37:12.785Z,20.68
2019-03-10T00:39:51.410Z,19.94
2019-03-10T00:42:37.934Z,20.48
2019-03-10T00:45:24.376Z,20.29
2019-03-10T00:48:11.721Z,21.43
2019-03-10T00:51:01.060Z,21.85
2019-03-10T00:53:27.238Z,21.81
2019-03-10T00:55:53.396Z,21.64
2019-03-10T00:58:19.570Z,21.36
2019-03-10T01:00:45.755Z,22.12
2019-03-10T01:03:11.910Z,22.25
2019-03-10T01:05:38.192Z,23.22
2019-03-10T01:08:04.751Z,22.74
2019-03-10T01:10:31.110Z,22.53
2019-03-10T01:12:57.275Z,22.43
2019-03-10T01:15:23.470Z,22.07
2019-03-10T01:17:51.523Z,22.70
2019-03-10T01:20:17.795Z,22.36
2019-03-10T01:22:43.976Z,22.31
2019-03-10T01:25:11.437Z,23.13
2019-03-10T01:27:37.596Z,23.74
2019-03-10T01:30:15.960Z,23.65
2019-03-10T01:33:14.571Z,23.67
2019-03-10T01:35:42.591Z,23.33
2019-03-10T01:38:08.929Z,23.59
2019-03-10T01:40:35.088Z,23.65
2019-03-10T01:43:01.379Z,23.88
2019-03-10T01:45:27.545Z,23.67
2019-03-10T01:47:53.699Z,23.68
2019-03-10T01:50:19.884Z,23.89
2019-03-10T01:52:46.041Z,23.12
2019-03-10T01:55:12.196Z,22.81
2019-03-10T01:57:38.499Z,23.47
2019-03-10T02:00:13.714Z,23.49
2019-03-10T02:02:39.903Z,23.32
2019-03-10T02:05:06.163Z,21.96
2019-03-10T02:07:32.324Z,22.22
2019-03-10T02:09:58.516Z,21.99
2019-03-10T02:12:24.771Z,21.21
2019-03-10T02:14:50.925Z,20.96
2019-03-10T02:17:17.216Z,20.87
2019-03-10T02:19:43.376Z,20.33
2019-03-10T02:22:09.526Z,20.44
2019-03-10T02:24:35.710Z,20.40
2019-03-10T02:27:01.876Z,19.83
2019-03-10T02:29:28.145Z,20.30
2019-03-10T02:31:54.327Z,20.46
2019-03-10T02:34:20.489Z,20.41
2019-03-10T02:36:46.702Z,20.91
2019-03-10T02:39:12.883Z,19.58
2019-03-10T02:41:39.036Z,20.11
2019-03-10T02:44:05.191Z,20.38
2019-03-10T02:46:31.389Z,19.96
2019-03-10T02:48:57.649Z,20.03
2019-03-10T02:51:23.818Z,19.98
2019-03-10T02:53:50.005Z,19.93
2019-03-10T02:56:16.162Z,19.63
2019-03-10T02:58:42.311Z,20.07
2019-03-10T03:01:08.614Z,20.42
2019-03-10T03:03:34.767Z,20.30
2019-03-10T03:06:00.919Z,20.10
2019-03-10T03:08:27.131Z,20.73
2019-03-10T03:10:53.274Z,21.08
2019-03-10T03:13:19.526Z,21.10
2019-03-10T03:15:45.848Z,21.34
2019-03-10T03:18:12.016Z,21.17
2019-03-10T03:20:38.173Z,22.03
2019-03-10T03:23:04.368Z,21.53
2019-03-10T03:25:30.518Z,21.49
2019-03-10T03:27:56.774Z,21.08
2019-03-10T03:30:22.985Z,21.13
2019-03-10T03:32:49.124Z,20.80
2019-03-10T03:35:46.578Z,20.81
2019-03-10T03:38:14.349Z,20.74
2019-03-10T03:40:46.872Z,20.52
2019-03-10T03:43:13.070Z,20.35
2019-03-10T03:45:39.251Z,20.15
2019-03-10T03:48:05.418Z,20.83
2019-03-10T03:50:31.709Z,19.86
2019-03-10T03:52:57.860Z,20.04
2019-03-10T03:55:24.012Z,20.32
2019-03-10T03:57:50.324Z,20.12
2019-03-10T04:00:16.479Z,20.27
2019-03-10T04:02:42.628Z,20.45
2019-03-10T04:05:09.329Z,20.62
2019-03-10T04:07:35.466Z,20.17
2019-03-10T04:10:02.127Z,21.12
2019-03-10T04:12:28.332Z,20.41
2019-03-10T04:14:54.499Z,20.15
2019-03-10T04:17:20.673Z,20.81
2019-03-10T04:19:46.961Z,20.72
2019-03-10T04:22:13.130Z,20.81
2019-03-10T04:24:39.292Z,20.93
2019-03-10T04:27:05.478Z,21.19
2019-03-10T04:29:31.649Z,21.11
2019-03-10T04:31:57.814Z,21.34
2019-03-10T04:34:24.103Z,20.72
2019-03-10T04:36:50.261Z,21.07
2019-03-10T04:39:16.427Z,21.64
2019-03-10T04:41:42.617Z,21.92
2019-03-10T04:44:08.878Z,21.11
2019-03-10T04:46:35.129Z,21.48
2019-03-10T04:49:01.336Z,21.42
2019-03-10T04:51:27.499Z,21.10
2019-03-10T04:53:53.655Z,21.13
2019-03-10T04:56:27.452Z,21.44
2019-03-10T04:58:53.713Z,20.96
2019-03-10T05:01:20.675Z,21.58
2019-03-10T05:03:46.880Z,21.94
2019-03-10T05:06:13.049Z,22.07
2019-03-10T05:08:39.190Z,20.99
2019-03-10T05:11:05.377Z,20.19
2019-03-10T05:13:31.540Z,21.31
2019-03-10T05:15:57.700Z,20.99
2019-03-10T05:18:23.993Z,21.44
2019-03-10T05:20:50.150Z,21.28
2019-03-10T05:23:29.057Z,21.33
2019-03-10T05:25:55.432Z,21.26
2019-03-10T05:28:21.586Z,21.86
2019-03-10T05:30:47.792Z,21.59
2019-03-10T05:33:13.951Z,21.43
2019-03-10T05:35:40.110Z,22.71
2019-03-10T05:38:06.292Z,22.09
2019-03-10T05:40:33.444Z,23.18
2019-03-10T05:42:59.601Z,22.22
2019-03-10T05:45:25.788Z,23.56
2019-03-10T05:47:52.070Z,22.89
2019-03-10T05:50:18.323Z,23.90
2019-03-10T05:52:44.521Z,24.26
2019-03-10T05:55:10.675Z,24.58
2019-03-10T05:57:36.839Z,22.68
2019-03-10T06:00:06.034Z,24.53
2019-03-10T06:02:32.312Z,24.19
2019-03-10T06:04:58.467Z,24.07
2019-03-10T06:07:24.670Z,25.09
2019-03-10T06:09:50.824Z,24.79
2019-03-10T06:12:16.988Z,24.91
2019-03-10T06:14:43.177Z,24.62
2019-03-10T06:17:09.464Z,25.14
2019-03-10T06:19:35.726Z,23.69
2019-03-10T06:22:01.957Z,25.18
2019-03-10T06:24:28.177Z,25.27
2019-03-10T06:26:54.329Z,24.08
2019-03-10T06:29:20.523Z,24.66
2019-03-10T06:31:46.669Z,25.20
2019-03-10T06:34:12.818Z,24.95
2019-03-10T06:36:39.120Z,24.65
2019-03-10T06:39:05.382Z,23.98
2019-03-10T06:41:31.583Z,25.01
2019-03-10T06:43:57.940Z,23.38
2019-03-10T06:46:24.087Z,25.40
2019-03-10T06:48:50.253Z,25.30
2019-03-10T06:51:16.540Z,24.77
2019-03-10T06:53:42.694Z,24.00
2019-03-10T06:56:08.879Z,24.76
2019-03-10T06:58:35.039Z,24.50
2019-03-10T07:01:01.191Z,23.72
2019-03-10T07:03:27.350Z,23.97
2019-03-10T07:05:53.540Z,23.61
2019-03-10T07:08:19.823Z,24.90
2019-03-10T07:10:46.233Z,25.83
2019-03-10T07:13:12.442Z,23.03
2019-03-10T07:15:38.594Z,24.11
2019-03-10T07:18:04.764Z,24.11
2019-03-10T07:20:30.960Z,24.19
2019-03-10T07:22:57.110Z,24.04
2019-03-10T07:25:23.269Z,24.39
2019-03-10T07:27:56.966Z,24.82
2019-03-10T07:30:30.617Z,24.74
2019-03-10T07:33:04.313Z,25.35
2019-03-10T07:35:32.375Z,24.76
2019-03-10T07:38:03.253Z,23.39
2019-03-10T07:40:36.886Z,24.06
2019-03-10T07:43:16.969Z,24.56
2019-03-10T07:45:45.073Z,24.82
2019-03-10T07:48:24.954Z,25.51
2019-03-10T07:50:53.053Z,23.34
2019-03-10T07:53:39.009Z,24.10
2019-03-10T07:56:18.939Z,25.30
2019-03-10T07:58:58.837Z,25.84
2019-03-10T08:01:29.735Z,23.84
2019-03-10T08:03:57.858Z,25.03
2019-03-10T08:06:43.811Z,24.96
2019-03-10T08:09:17.653Z,25.55
2019-03-10T08:11:57.486Z,26.22
2019-03-10T08:14:25.565Z,24.56
2019-03-10T08:17:05.828Z,24.58
2019-03-10T08:19:33.883Z,24.08
2019-03-10T08:22:04.696Z,25.94
2019-03-10T08:24:32.784Z,24.48
2019-03-10T08:27:00.867Z,25.79
2019-03-10T08:29:34.537Z,25.17
2019-03-10T08:32:02.609Z,25.83
2019-03-10T08:34:33.446Z,26.45
2019-03-10T08:37:04.065Z,25.23
2019-03-10T08:39:50.137Z,25.29
2019-03-10T08:42:21.042Z,26.02
2019-03-10T08:44:55.025Z,25.56
2019-03-10T08:47:41.427Z,25.24
2019-03-10T08:50:09.802Z,25.11
2019-03-10T08:52:37.859Z,25.73
2019-03-10T08:55:13.947Z,25.82
2019-03-10T08:57:56.825Z,25.83
2019-03-10T09:00:27.492Z,26.30
2019-03-10T09:02:58.066Z,24.76
2019-03-10T09:05:28.927Z,25.12
2019-03-10T09:08:05.987Z,26.51
2019-03-10T09:10:34.051Z,24.40
2019-03-10T09:13:02.121Z,26.70
2019-03-10T09:15:46.945Z,26.47
2019-03-10T09:18:31.505Z,26.02
2019-03-10T09:21:11.220Z,26.24
2019-03-10T09:23:41.784Z,25.79
2019-03-10T09:26:24.685Z,25.73
2019-03-10T09:28:55.769Z,25.34
2019-03-10T09:31:23.844Z,26.57
2019-03-10T09:34:08.174Z,26.75
2019-03-10T09:36:44.918Z,25.40
2019-03-10T09:39:24.895Z,27.06
2019-03-10T09:41:52.955Z,27.00
2019-03-10T09:44:37.830Z,26.95
2019-03-10T09:47:05.940Z,27.36
2019-03-10T09:49:36.619Z,26.94
2019-03-10T09:55:02.111Z,27.99
2019-03-10T09:57:46.800Z,27.09
2019-03-10T10:00:26.956Z,28.40
2019-03-10T10:03:11.379Z,27.10
2019-03-10T10:05:39.447Z,26.63
2019-03-10T10:08:07.505Z,27.23
2019-03-10T10:10:38.699Z,26.86
2019-03-10T10:13:21.612Z,26.56
2019-03-10T10:15:55.343Z,27.04
2019-03-10T10:18:26.205Z,27.22
2019-03-10T10:20:59.923Z,28.21
2019-03-10T10:23:28.059Z,27.90
2019-03-10T10:25:58.697Z,28.45
2019-03-10T10:28:38.688Z,26.56
2019-03-10T10:31:15.298Z,26.51
2019-03-10T10:33:43.493Z,27.42
2019-03-10T10:36:11.550Z,28.15
2019-03-10T10:38:48.180Z,28.13
2019-03-10T10:41:22.306Z,26.94
2019-03-10T10:44:02.088Z,28.09
2019-03-10T10:46:38.883Z,28.65
2019-03-10T10:49:09.594Z,29.08
2019-03-10T10:51:55.913Z,28.22
2019-03-10T10:54:26.605Z,28.40
2019-03-10T10:56:54.699Z,29.48
2019-03-10T10:59:22.743Z,29.25
2019-03-10T11:04:36.585Z,27.81
2019-03-10T11:07:10.275Z,28.87
2019-03-10T11:09:54.708Z,29.35
2019-03-10T11:12:28.508Z,29.76
2019-03-10T11:15:02.547Z,28.44
2019-03-10T11:17:30.640Z,28.79
2019-03-10T11:20:13.556Z,29.42
2019-03-10T11:22:53.959Z,28.00
2019-03-10T11:25:22.007Z,29.24
2019-03-10T11:27:50.072Z,29.13
2019-03-10T11:30:20.704Z,29.24
2019-03-10T11:32:48.771Z,30.09
2019-03-10T11:35:22.628Z,28.99
2019-03-10T11:37:53.442Z,28.20
2019-03-10T11:40:27.062Z,28.99
2019-03-10T11:42:55.120Z,28.53
2019-03-10T11:45:35.049Z,29.13
2019-03-10T11:48:03.099Z,29.12
2019-03-10T11:50:33.742Z,29.24
2019-03-10T11:53:01.845Z,29.23
2019-03-10T11:55:29.903Z,29.29
2019-03-10T11:58:03.755Z,29.18
2019-03-10T12:03:43.209Z,29.24
2019-03-10T12:06:23.331Z,28.75
2019-03-10T12:09:00.229Z,30.11
2019-03-10T12:11:26.384Z,28.15
2019-03-10T12:13:52.537Z,28.93
2019-03-10T12:16:18.724Z,28.59
2019-03-10T12:18:44.886Z,29.04
2019-03-10T12:21:11.140Z,29.24
2019-03-10T12:23:37.441Z,28.90
2019-03-10T12:26:03.714Z,30.06
2019-03-10T12:28:29.856Z,29.02
2019-03-10T12:30:56.037Z,29.84
2019-03-10T12:33:22.200Z,29.28
2019-03-10T12:35:48.450Z,29.34
2019-03-10T12:38:14.769Z,29.76
2019-03-10T12:40:40.932Z,29.75
2019-03-10T12:43:07.092Z,29.07
2019-03-10T12:45:33.291Z,28.82
2019-03-10T12:47:59.543Z,29.61
2019-03-10T12:50:25.694Z,30.41
2019-03-10T12:52:51.929Z,30.38
2019-03-10T12:55:18.225Z,30.04
2019-03-10T12:57:44.366Z,30.37
2019-03-10T13:00:13.722Z,29.92
2019-03-10T13:02:40.131Z,29.63
2019-03-10T13:05:07.909Z,31.05
2019-03-10T13:07:34.193Z,30.25
2019-03-10T13:10:00.385Z,30.69
2019-03-10T13:12:26.503Z,30.12
2019-03-10T13:14:59.389Z,29.70
2019-03-10T13:17:21.142Z,30.51
2019-03-10T13:19:47.316Z,29.49
2019-03-10T13:22:13.608Z,29.61
2019-03-10T13:24:39.771Z,30.90
2019-03-10T13:27:05.923Z,29.73
2019-03-10T13:29:32.124Z,29.21
2019-03-10T13:31:58.285Z,29.90
2019-03-10T13:34:24.442Z,29.84
2019-03-10T13:36:50.641Z,30.27
2019-03-10T13:39:16.799Z,29.36
2019-03-10T13:41:42.951Z,29.97
2019-03-10T13:44:09.239Z,29.33
2019-03-10T13:46:35.498Z,29.85
2019-03-10T13:49:01.654Z,29.11
2019-03-10T13:51:27.849Z,30.02
2019-03-10T13:53:54.113Z,30.92
2019-03-10T13:56:20.272Z,28.76
2019-03-10T13:58:46.463Z,29.41
2019-03-10T14:01:12.721Z,30.99
2019-03-10T14:03:39.787Z,31.37
2019-03-10T14:06:06.038Z,30.75
2019-03-10T14:08:32.193Z,30.74
2019-03-10T14:10:58.364Z,30.89
2019-03-10T14:13:24.683Z,30.25
2019-03-10T14:15:50.834Z,30.43
2019-03-10T14:18:16.991Z,29.88
2019-03-10T14:20:43.195Z,29.58
2019-03-10T14:23:09.457Z,29.19
2019-03-10T14:25:35.613Z,29.91
2019-03-10T14:28:01.913Z,30.04
2019-03-10T14:30:28.177Z,28.53
2019-03-10T14:32:54.328Z,29.61
2019-03-10T14:35:20.514Z,29.60
2019-03-10T14:37:46.666Z,29.13
2019-03-10T14:40:18.223Z,29.71
2019-03-10T14:42:44.390Z,29.87
2019-03-10T14:45:13.448Z,29.37
2019-03-10T14:47:39.624Z,29.53
2019-03-10T14:50:08.804Z,29.75
2019-03-10T14:52:35.133Z,30.23
2019-03-10T14:55:01.338Z,29.18
2019-03-10T14:57:27.515Z,28.77
2019-03-10T14:59:53.666Z,28.98
2019-03-10T15:02:19.931Z,29.21
2019-03-10T15:04:46.139Z,29.50
2019-03-10T15:07:12.282Z,29.40
2019-03-10T15:09:38.442Z,28.87
2019-03-10T15:12:04.621Z,29.49
2019-03-10T15:14:30.939Z,28.87
2019-03-10T15:17:01.395Z,28.93
2019-03-10T15:19:25.288Z,28.57
2019-03-10T15:21:51.448Z,28.40
2019-03-10T15:24:17.607Z,27.95
2019-03-10T15:26:45.914Z,27.96
2019-03-10T15:29:11.855Z,28.68
2019-03-10T15:31:38.010Z,28.91
2019-03-10T15:34:04.201Z,29.14
2019-03-10T15:36:30.367Z,29.17
2019-03-10T15:38:56.627Z,29.08
2019-03-10T15:41:22.827Z,28.92
2019-03-10T15:43:48.980Z,28.69
2019-03-10T15:46:15.150Z,28.39
2019-03-10T15:48:41.334Z,28.15
2019-03-10T15:51:07.483Z,28.19
2019-03-10T15:53:33.644Z,28.06
2019-03-10T15:55:59.886Z,27.84
2019-03-10T15:58:26.048Z,27.59
2019-03-10T16:00:52.199Z,27.40
2019-03-10T16:03:18.390Z,27.02
2019-03-10T16:05:44.552Z,26.77
2019-03-10T16:08:10.707Z,26.66
2019-03-10T16:10:36.907Z,26.59
2019-03-10T16:13:03.063Z,26.55
2019-03-10T16:15:30.402Z,26.28
2019-03-10T16:17:56.592Z,26.07
2019-03-10T16:20:22.744Z,25.88
2019-03-10T16:22:48.896Z,25.81
2019-03-10T16:25:16.196Z,25.69
2019-03-10T16:27:42.371Z,25.57
2019-03-10T16:30:25.898Z,25.40
2019-03-10T16:32:52.074Z,25.41
2019-03-10T16:35:18.245Z,25.39
2019-03-10T16:37:44.433Z,24.96
2019-03-10T16:40:17.085Z,24.51
2019-03-10T16:42:43.255Z,24.65
2019-03-10T16:45:14.903Z,24.45
2019-03-10T16:47:41.067Z,24.45
2019-03-10T16:50:12.980Z,24.32
2019-03-10T16:52:39.187Z,24.22
2019-03-10T16:55:08.159Z,24.32
2019-03-10T16:57:36.119Z,24.29
2019-03-10T17:00:03.751Z,24.28
2019-03-10T17:02:31.208Z,24.04
2019-03-10T17:04:57.473Z,24.15
2019-03-10T17:07:23.664Z,24.26
2019-03-10T17:09:49.819Z,24.22
2019-03-10T17:12:15.985Z,24.22
2019-03-10T17:14:42.175Z,24.35
2019-03-10T17:17:08.334Z,24.46
2019-03-10T17:19:34.488Z,24.43
2019-03-10T17:22:00.719Z,24.44
2019-03-10T17:24:26.979Z,24.38
2019-03-10T17:26:53.144Z,24.66
2019-03-10T17:29:19.328Z,24.65
2019-03-10T17:31:45.587Z,24.77
2019-03-10T17:34:11.731Z,24.64
2019-03-10T17:36:37.935Z,24.77
2019-03-10T17:39:04.995Z,24.60
2019-03-10T17:41:31.187Z,24.46
2019-03-10T17:43:57.371Z,24.74
2019-03-10T17:46:23.540Z,24.77
2019-03-10T17:48:49.707Z,25.01
2019-03-10T17:51:15.904Z,25.06
2019-03-10T17:53:42.216Z,24.95
2019-03-10T17:56:08.437Z,24.99
2019-03-10T17:58:35.518Z,24.96
2019-03-10T18:01:01.750Z,24.70
2019-03-10T18:03:28.021Z,24.64
2019-03-10T18:05:54.218Z,24.66
2019-03-10T18:08:20.390Z,24.84
2019-03-10T18:10:46.540Z,24.64
2019-03-10T18:13:12.747Z,24.36
2019-03-10T18:15:38.997Z,24.63
2019-03-10T18:18:05.261Z,24.64
2019-03-10T18:20:31.556Z,24.81
2019-03-10T18:22:57.712Z,24.40
2019-03-10T18:25:23.874Z,24.17
2019-03-10T18:27:50.064Z,24.09
2019-03-10T18:30:20.080Z,23.96
2019-03-10T18:32:46.243Z,24.23
2019-03-10T18:35:12.427Z,24.31
2019-03-10T18:37:38.579Z,23.97
2019-03-10T18:40:10.956Z,23.73
2019-03-10T18:42:37.137Z,24.07
2019-03-10T18:45:06.505Z,23.93
2019-03-10T18:47:32.656Z,23.62
2019-03-10T18:49:58.850Z,23.89
2019-03-10T18:52:25.008Z,23.88
2019-03-10T18:54:51.189Z,23.68
2019-03-10T18:57:17.388Z,23.44
2019-03-10T18:59:43.553Z,23.29
2019-03-10T19:02:09.825Z,23.71
2019-03-10T19:04:36.002Z,23.93
2019-03-10T19:07:02.490Z,24.11
2019-03-10T19:09:28.648Z,24.02
2019-03-10T19:11:54.853Z,24.03
2019-03-10T19:14:21.109Z,24.08
2019-03-10T19:16:47.590Z,23.57
2019-03-10T19:19:13.896Z,23.64
2019-03-10T19:21:40.153Z,23.32
2019-03-10T19:24:06.307Z,23.56
2019-03-10T19:26:32.593Z,23.55
2019-03-10T19:28:58.755Z,23.23
2019-03-10T19:31:24.922Z,22.99
2019-03-10T19:33:51.208Z,23.30
2019-03-10T19:36:17.372Z,23.26
2019-03-10T19:38:43.539Z,23.06
2019-03-10T19:41:09.720Z,23.42
2019-03-10T19:43:35.993Z,22.83
2019-03-10T19:46:02.148Z,23.45
2019-03-10T19:48:28.345Z,23.41
2019-03-10T19:50:54.502Z,23.27
2019-03-10T19:53:20.755Z,23.64
2019-03-10T19:55:46.972Z,23.30
2019-03-10T19:58:13.127Z,23.30
2019-03-10T20:00:39.433Z,23.51
2019-03-10T20:03:05.631Z,23.29
2019-03-10T20:05:31.789Z,23.45
2019-03-10T20:07:57.968Z,23.29
2019-03-10T20:10:24.145Z,23.54
2019-03-10T20:12:50.308Z,23.67
2019-03-10T20:15:23.581Z,23.58
2019-03-10T20:17:49.770Z,23.37
2019-03-10T20:20:26.570Z,23.03
2019-03-10T20:22:52.925Z,23.25
2019-03-10T20:25:19.089Z,23.02
2019-03-10T20:27:45.248Z,23.24
2019-03-10T20:30:17.066Z,23.07
2019-03-10T20:32:43.226Z,23.57
2019-03-10T20:35:09.391Z,22.90
2019-03-10T20:37:35.683Z,23.38
2019-03-10T20:40:04.741Z,23.06
2019-03-10T20:42:30.895Z,23.44
2019-03-10T20:44:57.083Z,22.95
2019-03-10T20:47:23.239Z,23.55
2019-03-10T20:49:49.466Z,22.76
2019-03-10T20:52:15.793Z,22.83
2019-03-10T20:54:41.949Z,23.03
2019-03-10T20:57:08.099Z,22.92
2019-03-10T20:59:34.292Z,22.89
2019-03-10T21:02:00.447Z,22.84
2019-03-10T21:04:26.599Z,23.21
2019-03-10T21:06:52.887Z,23.07
2019-03-10T21:09:19.042Z,23.09
2019-03-10T21:11:45.315Z,23.29
2019-03-10T21:14:11.503Z,23.64
2019-03-10T21:16:37.667Z,23.62
2019-03-10T21:19:03.927Z,23.37
2019-03-10T21:21:30.133Z,23.00
2019-03-10T21:23:56.296Z,23.12
2019-03-10T21:26:22.452Z,23.71
2019-03-10T21:28:48.635Z,23.63
2019-03-10T21:31:14.792Z,23.07
2019-03-10T21:33:40.949Z,23.24
2019-03-10T21:36:07.135Z,23.10
2019-03-10T21:38:33.290Z,23.40
2019-03-10T21:40:59.544Z,23.04
2019-03-10T21:43:25.731Z,23.12
2019-03-10T21:45:51.888Z,23.08
2019-03-10T21:48:18.150Z,23.00
2019-03-10T21:50:44.327Z,23.57
2019-03-10T21:53:10.584Z,22.79
2019-03-10T21:55:36.852Z,23.61
2019-03-10T21:58:03.036Z,23.64
2019-03-10T22:00:29.358Z,23.63
2019-03-10T22:02:55.616Z,23.18
2019-03-10T22:05:22.703Z,23.21
2019-03-10T22:07:49.047Z,22.89
2019-03-10T22:10:26.977Z,22.92
2019-03-10T22:12:47.162Z,22.67
2019-03-10T22:15:17.541Z,23.26
2019-03-10T22:17:44.053Z,23.10
2019-03-10T22:20:14.456Z,23.50
2019-03-10T22:22:48.502Z,23.26
2019-03-10T22:25:13.002Z,23.70
2019-03-10T22:27:38.252Z,23.12
2019-03-10T22:30:08.017Z,23.03
2019-03-10T22:32:34.186Z,23.22
2019-03-10T22:35:00.424Z,23.84
2019-03-10T22:37:26.642Z,22.80
2019-03-10T22:39:52.799Z,22.66
2019-03-10T22:42:19.141Z,23.07
2019-03-10T22:44:46.625Z,22.74
2019-03-10T22:47:12.917Z,23.25
2019-03-10T22:49:39.224Z,23.67
2019-03-10T22:52:05.370Z,23.30
2019-03-10T22:54:31.532Z,22.75
2019-03-10T22:56:57.723Z,22.90
2019-03-10T22:59:23.883Z,22.61
2019-03-10T23:01:50.037Z,22.51
2019-03-10T23:04:17.811Z,22.58
2019-03-10T23:06:44.072Z,22.63
2019-03-10T23:09:10.320Z,22.89
2019-03-10T23:11:36.519Z,22.67
2019-03-10T23:14:02.775Z,22.60
2019-03-10T23:16:28.932Z,22.93
2019-03-10T23:18:55.129Z,22.72
2019-03-10T23:21:21.286Z,23.29
2019-03-10T23:23:47.443Z,23.30
2019-03-10T23:26:13.639Z,23.78
2019-03-10T23:28:39.894Z,23.40
2019-03-10T23:31:06.043Z,23.70
2019-03-10T23:33:32.250Z,23.64
2019-03-10T23:35:58.504Z,23.67
2019-03-10T23:38:24.662Z,23.66
2019-03-10T23:40:50.853Z,24.24
2019-03-10T23:43:17.009Z,24.12
2019-03-10T23:45:43.173Z,24.22
2019-03-10T23:48:09.462Z,24.24
2019-03-10T23:50:35.625Z,24.72
2019-03-10T23:53:01.830Z,24.64
2019-03-10T23:55:28.192Z,24.57
2019-03-10T23:57:54.345Z,25.22
